Fog

Утро туманное, утро седое…

Вот такая зима…

YMML 112300Z 22004KT 0100 R16/0100V0250N R27/0200V0275N FG VV001 08/08 Q1031 FM0030 VRB05KT 2000 BR BKN005

3 thoughts on “Fog

  1. GreySkil

    Дата и время: 11.06 23.00 UTC
    Температура: 08 С
    И с небом там веселуха какая то, но не CAVOK :)

  2. demid Post author

    С небом такая веселуха: видимость 100 метров, туман, вертикальная видимость 100 футов (30 метров)

Leave a Reply

Your email address will not be published. Required fields are marked *

You may use these HTML tags and attributes: <a href="" title=""> <abbr title=""> <acronym title=""> <b> <blockquote cite=""> <cite> <code> <del datetime=""> <em> <i> <q cite=""> <strike> <strong>